Terminal Aerodrome Forecast
Issued by NWS Cleveland, OH

Home | Current Version | Previous Version | Text Only | Print | Product List | Glossary On
Versions: 1 2 3 4 5 6 7 8 9 10 11 12 13 14 15
458
FTUS41 KCLE 221529 AAA
TAFCAK
TAF AMD
KCAK 221529Z 2215/2312 22015G25KT P6SM VCTS BKN030CB BKN200
     FM221800 23015G25KT P6SM VCTS BKN040CB BKN090
      TEMPO 2219/2221 5SM -TSRA OVC030CB
     FM230000 28011KT P6SM VCSH BKN035 BKN060
     FM230300 30008KT P6SM SCT045
     FM230900 VRB03KT P6SM FEW150=

USA.gov is the U.S. government's official web portal to all federal, state and local government web resources and services.